Taylors Falls, MN

11:20 PM CST on November 23, 2014 (GMT -0600)
Hilltop Acres | Change Station
CLOSE
Current Station
Personal Weather Station
Location: Osceola, WI
Elevation: 900 ft
Nearby Weather Stations

Elev 900 ft 45.34 °N, 92.67 °W | Updated 13 minutes ago

Rain
Rain
36.8 °F
Feels Like 37 °F
N
0.0
Wind Variable Wind from NNE
Gusts 10.0 mph

Today
High -- | Low -- °F
--% Chance of Precip.
Yesterday
High -- | Low -- °F
Precip. -- in
7:20 AM 4:33 PM
Waxing Crescent, 4% visible
Pressure 29.34 in
Visibility 5.0 miles
Clouds Overcast 600 ft
Windchill 37 °F
Dew Point 36 °F
Humidity 98%
Rainfall 0.05 in
Snow Depth Not available.
UV 0 out of 12
Pollen .10 out of 12
Air Quality Not available.
Flu Activity Not available.
METAR KOEO 240455Z AUTO 31010KT 5SM RA OVC006 03/03 A2934 RMK AO2 P0001 T00280028

More Conditions Fewer Conditions

Pressure 29.34 in
Visibility 5.0 miles
Clouds Overcast 600 ft
Windchill 37 °F
Dew Point 36 °F
Humidity 98%
Rainfall 0.05 in
Snow Depth Not available.
UV 0 out of 12
Pollen .10 out of 12
Air Quality Not available.
Flu Activity Not available.
METAR KOEO 240455Z AUTO 31010KT 5SM RA OVC006 03/03 A2934 RMK AO2 P0001 T00280028

More Conditions Fewer Conditions

10-Day Weather Forecast

Almanac

Astronomy

Nov. 23, 2014 Rise Set
Actual Time
Civil Twilight
Nautical Twilight
Astronomical Twilight
Moon
Length of Visible Light
Length of Day
Tomorrow will be .
, % of the Moon is Illuminated

Today's Extremes

State Highs State Lows

Community

WunderPhotos

Upload Photos

1,773,269 photos uploaded!

WunderBlogs® & News

Nearby

Air Quality

  Air Quality AQ Index Pollutant
Not available.

Snow Depth

Station Depth Elevation

Earthquake Activity

City Distance Mag. Time & Date
Minimum magnitude displayed is 2.5.

Coastal Water Temperatures

Place Temperature

Nearby Weather Stations